Bookmark and Share
Track history (hours):
 

Genius

Last reported at 2014-Apr-11 14:11 UTC. Time now 2014-Apr-19 00:14 UTC.
Position S 35°02' E 025°55'.

Length 288 m; draft 16.2 m.

Type: Cargo ship. MMSI: 235074615.

NotesDate/timePositionNaut miles runAvg speedWind from/ knotsBaromVisibWave heightAir tempDewpointWater temp
2014-Apr-11 14:11S 35°02' E 025°55'49 8.6
2014-Apr-11 08:33S 35°03' E 024°56'9 7.6
2014-Apr-11 07:19S 35°03' E 024°44'6 7.5
2014-Apr-11 06:33S 35°03' E 024°37'9 7.6
2014-Apr-11 05:19S 35°03' E 024°26'6 8.4
2014-Apr-11 04:33S 35°03' E 024°18'1510.6
2014-Apr-11 03:06S 35°03' E 023°59'3111.7
2014-Apr-11 00:29S 35°03' E 023°22'3311.0
2014-Apr-10 21:29S 35°04' E 022°42'13 9.9
2014-Apr-10 20:12S 35°04' E 022°26'710.1
2014-Apr-10 19:30S 35°05' E 022°18'3210.5
2014-Apr-10 16:26S 35°07' E 021°38'1010.7
2014-Apr-10 15:32S 35°08' E 021°27'1410.7
2014-Apr-10 14:11S 35°09' E 021°09'3010.6
2014-Apr-10 11:20S 35°10' E 020°32'5410.4
2014-Apr-10 06:11S 34°55' E 019°29'7 9.9
2014-Apr-10 05:27S 34°53' E 019°21'9 9.8
2014-Apr-10 04:32S 34°49' E 019°11'1010.2
2014-Apr-10 03:33S 34°45' E 019°00'1010.2
2014-Apr-10 02:33S 34°40' E 018°49'1110.5
2014-Apr-10 01:33S 34°36' E 018°37'1210.5
2014-Apr-10 00:26S 34°31' E 018°24'1410.4
2014-Apr-09 23:08S 34°26' E 018°09'610.3
2014-Apr-09 22:33S 34°23' E 018°03'1210.1
2014-Apr-09 21:19S 34°14' E 017°52'8 9.9
2014-Apr-09 20:33S 34°08' E 017°47'9 9.3
2014-Apr-09 19:33S 34°00' E 017°40'9 8.9
2014-Apr-09 18:33S 33°53' E 017°34'11 9.2
2014-Apr-09 17:23S 33°45' E 017°26'65 9.4
2014-Apr-09 10:33S 32°53' E 016°39'1110.4
2014-Apr-09 09:27S 32°44' E 016°31'7410.1
2014-Apr-09 02:08S 31°45' E 015°38'1010.2
2014-Apr-09 01:11S 31°38' E 015°31'1710.2
2014-Apr-08 23:33S 31°24' E 015°19'3210.2
2014-Apr-08 20:25S 30°59' E 014°57'  

Dump ship's entire track history

sailing weather and tide predictions

Genius — 2CPA7 — position and weather